Time;durP1;ratioP1;P1;durP2;ratioP2;P2;SDS_P1;SDS_P2;PMS_P1;PMS_P2;Temp;Humidity;BMP_temperature;BMP_pressure;BME280_temperature;BME280_humidity;BME280_pressure;Samples;Min_cycle;Max_cycle;Signal;HPM_P1;HPM_P2
2024/01/26 00:01:41;;;;;;;17.57;6.43;;;9.90;80.30;;;;;;4982943;28;20483;-77
2024/01/26 00:04:09;;;;;;;12.13;6.57;;;9.90;80.30;;;;;;4986250;28;21002;-77
2024/01/26 00:06:37;;;;;;;17.23;6.87;;;9.90;80.40;;;;;;4983185;28;20462;-77
2024/01/26 00:09:10;;;;;;;12.80;6.97;;;9.90;80.50;;;;;;4999455;28;21208;-77
2024/01/26 00:11:40;;;;;;;12.63;6.50;;;9.90;80.60;;;;;;4994619;28;20469;-77
2024/01/26 00:14:09;;;;;;;10.53;5.80;;;9.90;80.70;;;;;;4984032;28;20480;-76
2024/01/26 00:16:38;;;;;;;13.13;6.80;;;9.90;80.80;;;;;;5006180;28;20774;-77
2024/01/26 00:19:06;;;;;;;16.23;7.37;;;9.90;80.90;;;;;;4985991;28;20513;-77
2024/01/26 00:21:34;;;;;;;11.47;6.93;;;9.90;81.00;;;;;;4983541;28;20458;-77
2024/01/26 00:24:03;;;;;;;13.40;5.80;;;9.90;81.00;;;;;;4986670;28;20546;-77
2024/01/26 00:26:31;;;;;;;10.77;5.20;;;10.00;81.10;;;;;;5001019;28;20494;-77
2024/01/26 00:29:00;;;;;;;17.27;6.00;;;9.90;81.00;;;;;;4987109;28;20458;-77
2024/01/26 00:31:28;;;;;;;13.00;5.50;;;10.00;81.10;;;;;;4999410;28;20539;-77
2024/01/26 00:33:56;;;;;;;11.07;5.83;;;9.90;81.10;;;;;;5006047;28;20482;-77
2024/01/26 00:36:24;;;;;;;15.47;6.13;;;10.00;81.10;;;;;;5004217;28;20464;-77
2024/01/26 00:38:53;;;;;;;13.60;5.93;;;10.00;81.10;;;;;;5006313;28;20875;-77
2024/01/26 00:41:21;;;;;;;12.17;5.07;;;10.00;81.10;;;;;;5005976;28;20963;-77
2024/01/26 00:43:49;;;;;;;10.40;4.63;;;10.00;81.20;;;;;;5005077;28;20543;-77
2024/01/26 00:46:21;;;;;;;9.70;4.13;;;10.00;81.30;;;;;;5008505;28;20548;-77
2024/01/26 00:48:49;;;;;;;7.57;4.10;;;10.00;81.40;;;;;;5006427;28;20463;-77
2024/01/26 00:51:17;;;;;;;9.20;4.17;;;10.00;81.50;;;;;;5007206;28;20452;-77
2024/01/26 00:53:46;;;;;;;7.97;4.67;;;10.00;81.60;;;;;;5005192;28;20464;-77
2024/01/26 00:56:14;;;;;;;8.93;4.70;;;10.00;81.60;;;;;;5004017;28;21403;-77
2024/01/26 00:58:42;;;;;;;8.20;4.20;;;10.00;81.70;;;;;;5007579;28;20457;-77
2024/01/26 01:01:10;;;;;;;9.60;4.57;;;10.00;81.70;;;;;;4999982;28;20485;-77
2024/01/26 01:03:39;;;;;;;9.40;5.30;;;10.00;81.70;;;;;;5004000;28;20453;-77
2024/01/26 01:06:07;;;;;;;12.40;5.07;;;10.10;81.70;;;;;;5006364;28;20457;-77
2024/01/26 01:08:36;;;;;;;8.80;4.43;;;10.00;81.60;;;;;;5004364;28;20934;-77
2024/01/26 01:11:05;;;;;;;7.97;4.10;;;10.10;81.70;;;;;;5019569;28;20987;-77
2024/01/26 01:13:34;;;;;;;8.87;5.13;;;10.00;81.70;;;;;;5006324;28;20948;-77
2024/01/26 01:16:02;;;;;;;10.10;4.53;;;10.00;81.80;;;;;;5005356;28;21222;-77
2024/01/26 01:18:30;;;;;;;11.37;7.30;;;10.10;81.80;;;;;;5011457;28;20472;-77
2024/01/26 01:21:00;;;;;;;10.73;5.90;;;10.10;81.80;;;;;;5005322;28;20519;-76
2024/01/26 01:23:28;;;;;;;11.57;6.03;;;10.10;81.90;;;;;;5004085;28;20532;-76
2024/01/26 01:25:56;;;;;;;10.57;5.97;;;10.10;81.90;;;;;;5022868;28;20496;-77
2024/01/26 01:28:24;;;;;;;10.13;5.07;;;10.10;81.90;;;;;;5004352;28;20464;-77
2024/01/26 01:30:52;;;;;;;11.47;5.23;;;10.10;81.90;;;;;;4994792;28;20480;-77
2024/01/26 01:33:20;;;;;;;14.00;5.50;;;10.10;81.90;;;;;;4988492;28;20479;-77
2024/01/26 01:35:48;;;;;;;8.60;4.50;;;10.10;81.90;;;;;;4984441;28;20449;-77
2024/01/26 01:38:18;;;;;;;7.77;4.10;;;10.10;81.90;;;;;;4989323;28;20469;-77
2024/01/26 01:40:45;;;;;;;10.53;5.00;;;10.00;82.00;;;;;;4986802;28;20496;-77
2024/01/26 01:43:17;;;;;;;7.43;4.60;;;10.10;82.00;;;;;;4987027;28;21113;-77
2024/01/26 01:45:46;;;;;;;7.00;4.23;;;10.10;82.10;;;;;;4987071;28;20455;-77
2024/01/26 01:48:14;;;;;;;8.20;4.70;;;10.00;82.20;;;;;;4979782;28;20457;-77
2024/01/26 01:50:43;;;;;;;9.47;5.40;;;10.00;82.20;;;;;;5002452;28;20453;-77
2024/01/26 01:53:12;;;;;;;11.00;5.60;;;10.00;82.30;;;;;;5002520;28;20458;-77
2024/01/26 01:55:44;;;;;;;10.03;5.07;;;10.00;82.30;;;;;;4993647;28;20465;-77
2024/01/26 01:58:14;;;;;;;10.90;5.50;;;10.00;82.40;;;;;;4987185;28;20498;-78
2024/01/26 02:00:42;;;;;;;7.37;4.33;;;10.00;82.40;;;;;;4984607;28;21103;-77
2024/01/26 02:03:10;;;;;;;8.93;4.67;;;10.00;82.50;;;;;;5000585;28;20465;-77
2024/01/26 02:05:38;;;;;;;9.80;5.50;;;10.10;82.50;;;;;;4987615;28;20568;-77
2024/01/26 02:08:07;;;;;;;10.50;5.40;;;10.10;82.60;;;;;;4985681;28;20994;-77
2024/01/26 02:10:35;;;;;;;9.13;5.20;;;10.10;82.70;;;;;;4985175;28;20461;-77
2024/01/26 02:13:04;;;;;;;11.33;5.70;;;10.10;82.80;;;;;;4985230;28;20449;-77
2024/01/26 02:15:32;;;;;;;12.23;6.47;;;10.10;82.90;;;;;;4985523;28;20949;-77
2024/01/26 02:18:00;;;;;;;9.63;5.17;;;10.10;82.90;;;;;;4982624;28;20462;-77
2024/01/26 02:20:30;;;;;;;15.03;6.20;;;10.10;83.00;;;;;;4984888;28;20556;-77
2024/01/26 02:23:21;;;;;;;10.30;5.73;;;10.10;83.00;;;;;;4986269;28;20445;-77
2024/01/26 02:25:50;;;;;;;10.70;5.97;;;10.10;83.10;;;;;;4999976;28;20471;-77
2024/01/26 02:28:18;;;;;;;10.27;5.93;;;10.10;83.10;;;;;;4988883;28;20979;-77
2024/01/26 02:30:46;;;;;;;8.47;5.03;;;10.10;83.20;;;;;;4984118;28;20485;-77
2024/01/26 02:33:14;;;;;;;8.70;5.00;;;10.10;83.20;;;;;;4985257;28;20466;-77
2024/01/26 02:35:42;;;;;;;8.60;5.07;;;10.20;83.20;;;;;;4983710;28;20919;-77
2024/01/26 02:38:10;;;;;;;8.03;4.70;;;10.10;83.20;;;;;;5001237;28;21026;-77
2024/01/26 02:40:40;;;;;;;8.40;4.80;;;10.10;83.20;;;;;;4984776;28;20479;-77
2024/01/26 02:43:09;;;;;;;7.70;4.60;;;10.10;83.20;;;;;;4986046;28;20536;-77
2024/01/26 02:45:37;;;;;;;9.90;4.83;;;10.10;83.30;;;;;;5001135;28;20453;-77
2024/01/26 02:48:05;;;;;;;8.20;5.17;;;10.10;83.30;;;;;;4982971;28;20457;-77
2024/01/26 02:50:34;;;;;;;10.50;5.20;;;10.20;83.30;;;;;;4982144;28;20837;-77
2024/01/26 02:53:02;;;;;;;10.63;6.40;;;10.20;83.30;;;;;;4980359;28;20470;-77
2024/01/26 02:55:30;;;;;;;10.50;6.30;;;10.20;83.40;;;;;;4982109;28;20516;-76
2024/01/26 02:57:59;;;;;;;9.87;5.50;;;10.20;83.50;;;;;;4982332;28;20540;-76
2024/01/26 03:00:27;;;;;;;8.60;5.27;;;10.20;83.50;;;;;;4983012;28;20505;-76
2024/01/26 03:02:56;;;;;;;10.70;5.83;;;10.20;83.50;;;;;;4999900;28;20555;-76
2024/01/26 03:05:24;;;;;;;9.27;5.47;;;10.20;83.50;;;;;;5020889;28;20457;-76
2024/01/26 03:07:52;;;;;;;10.30;5.93;;;10.20;83.50;;;;;;5003845;28;20516;-76
2024/01/26 03:10:20;;;;;;;11.10;5.83;;;10.20;83.50;;;;;;5001878;28;20983;-76
2024/01/26 03:12:48;;;;;;;9.70;5.77;;;10.20;83.60;;;;;;4998977;28;20476;-76
2024/01/26 03:15:18;;;;;;;9.57;5.43;;;10.20;83.60;;;;;;5000694;28;20790;-76
2024/01/26 03:17:46;;;;;;;8.97;5.70;;;10.20;83.70;;;;;;5001843;28;20963;-76
2024/01/26 03:20:14;;;;;;;8.40;5.40;;;10.20;83.70;;;;;;5005218;28;20961;-77
2024/01/26 03:22:43;;;;;;;9.40;5.60;;;10.20;83.80;;;;;;5017815;28;20527;-76
2024/01/26 03:25:11;;;;;;;9.37;4.80;;;10.20;83.80;;;;;;5000949;28;20460;-77
2024/01/26 03:27:39;;;;;;;7.83;4.97;;;10.20;83.80;;;;;;5002734;28;20453;-76
2024/01/26 03:30:08;;;;;;;9.60;5.37;;;10.30;83.80;;;;;;5001087;28;20555;-77
2024/01/26 03:32:38;;;;;;;8.30;5.40;;;10.20;83.80;;;;;;5002636;28;20471;-76
2024/01/26 03:35:06;;;;;;;10.50;6.70;;;10.20;83.80;;;;;;5004845;28;20479;-76
2024/01/26 03:37:34;;;;;;;9.80;5.13;;;10.20;83.90;;;;;;5002548;28;20461;-76
2024/01/26 03:40:03;;;;;;;10.10;5.87;;;10.20;84.00;;;;;;5008400;28;21001;-76
2024/01/26 03:42:31;;;;;;;8.47;5.43;;;10.30;84.00;;;;;;5001371;28;20527;-76
2024/01/26 03:44:59;;;;;;;11.83;5.30;;;10.30;84.00;;;;;;5002576;28;20452;-76
2024/01/26 03:47:27;;;;;;;10.00;5.37;;;10.30;84.00;;;;;;4998961;28;21003;-77
2024/01/26 03:49:56;;;;;;;9.10;5.63;;;10.30;84.10;;;;;;5010934;28;20956;-77
2024/01/26 03:52:24;;;;;;;8.87;5.13;;;10.30;84.10;;;;;;4998440;28;20548;-76
2024/01/26 03:54:52;;;;;;;9.00;5.30;;;10.30;84.10;;;;;;4998152;28;20464;-76
2024/01/26 03:57:20;;;;;;;9.23;4.93;;;10.30;84.20;;;;;;5002002;28;20457;-76
2024/01/26 03:59:48;;;;;;;11.13;4.93;;;10.30;84.20;;;;;;4999329;28;20819;-76
2024/01/26 04:02:17;;;;;;;7.60;4.80;;;10.40;84.20;;;;;;5006074;28;20504;-77
2024/01/26 04:04:45;;;;;;;8.70;5.00;;;10.40;84.20;;;;;;5008421;28;20456;-76
2024/01/26 04:07:15;;;;;;;8.70;4.53;;;10.40;84.30;;;;;;5007560;28;20464;-77
2024/01/26 04:09:43;;;;;;;8.63;5.50;;;10.40;84.30;;;;;;5003911;28;20945;-78
2024/01/26 04:12:11;;;;;;;10.60;5.33;;;10.40;84.20;;;;;;5014746;28;20455;-77
2024/01/26 04:14:39;;;;;;;10.60;6.20;;;10.40;84.30;;;;;;5011326;28;20987;-77
2024/01/26 04:17:07;;;;;;;12.83;7.30;;;10.40;84.30;;;;;;5006303;28;20459;-76
2024/01/26 04:19:35;;;;;;;12.00;7.07;;;10.40;84.40;;;;;;5004337;28;20468;-76
2024/01/26 04:22:03;;;;;;;11.60;7.17;;;10.40;84.40;;;;;;5006314;28;20578;-76
2024/01/26 04:24:32;;;;;;;13.00;7.47;;;10.40;84.40;;;;;;5018428;28;20471;-76
2024/01/26 04:27:00;;;;;;;11.70;7.50;;;10.40;84.40;;;;;;5012780;28;20602;-77
2024/01/26 04:29:28;;;;;;;15.00;7.77;;;10.40;84.40;;;;;;5019969;28;20516;-76
2024/01/26 04:31:56;;;;;;;12.80;7.77;;;10.40;84.40;;;;;;5006004;28;20465;-76
2024/01/26 04:34:24;;;;;;;13.93;8.47;;;10.40;84.40;;;;;;5004748;28;20507;-76
2024/01/26 04:36:53;;;;;;;13.67;8.03;;;10.40;84.50;;;;;;5004330;28;20560;-76
2024/01/26 04:39:21;;;;;;;14.63;8.67;;;10.40;84.50;;;;;;4999426;28;21240;-76
2024/01/26 04:41:50;;;;;;;14.33;8.80;;;10.40;84.50;;;;;;5021071;28;20476;-77
2024/01/26 04:44:19;;;;;;;16.60;9.30;;;10.40;84.60;;;;;;5005004;28;20946;-76
2024/01/26 04:46:47;;;;;;;14.30;9.33;;;10.40;84.50;;;;;;5004259;28;20448;-76
2024/01/26 04:49:15;;;;;;;14.60;8.87;;;10.40;84.50;;;;;;5003597;28;20475;-76
2024/01/26 04:51:43;;;;;;;16.60;9.13;;;10.40;84.50;;;;;;5020926;28;20459;-76
2024/01/26 04:54:11;;;;;;;14.17;8.73;;;10.40;84.60;;;;;;4996410;28;20456;-76
2024/01/26 04:56:39;;;;;;;12.57;7.90;;;10.40;84.60;;;;;;5000157;28;20858;-76
2024/01/26 04:59:09;;;;;;;15.53;8.57;;;10.40;84.60;;;;;;5006281;28;20537;-77
2024/01/26 05:01:36;;;;;;;16.10;8.30;;;10.40;84.70;;;;;;5003563;28;20490;-76
2024/01/26 05:04:06;;;;;;;13.10;8.70;;;10.40;84.70;;;;;;5004794;28;20475;-76
2024/01/26 05:06:34;;;;;;;11.93;7.00;;;10.40;84.70;;;;;;5005267;28;20453;-76
2024/01/26 05:09:02;;;;;;;11.60;6.33;;;10.40;84.70;;;;;;5005728;28;21068;-76
2024/01/26 05:11:30;;;;;;;12.30;7.10;;;10.40;84.80;;;;;;5017440;28;20528;-76
2024/01/26 05:13:59;;;;;;;12.20;7.07;;;10.40;84.80;;;;;;5005111;28;20484;-77
2024/01/26 05:16:28;;;;;;;10.47;6.83;;;10.40;84.80;;;;;;5006969;28;20492;-76
2024/01/26 05:18:56;;;;;;;9.90;6.43;;;10.40;84.80;;;;;;5002721;28;20461;-77
2024/01/26 05:21:24;;;;;;;10.80;6.57;;;10.40;84.90;;;;;;5019365;28;20806;-77
2024/01/26 05:23:54;;;;;;;10.80;5.73;;;10.40;84.90;;;;;;5003260;28;20475;-77
2024/01/26 05:26:22;;;;;;;10.47;6.00;;;10.40;84.90;;;;;;5008020;28;20469;-76
2024/01/26 05:28:50;;;;;;;8.17;5.47;;;10.40;84.90;;;;;;5005232;28;20995;-77
2024/01/26 05:31:18;;;;;;;8.67;5.60;;;10.40;84.90;;;;;;5002903;28;20503;-76
2024/01/26 05:33:47;;;;;;;10.60;5.10;;;10.40;84.90;;;;;;5002522;28;20470;-76
2024/01/26 05:36:16;;;;;;;10.03;4.73;;;10.40;85.00;;;;;;4999935;28;20499;-77
2024/01/26 05:38:44;;;;;;;6.87;3.93;;;10.40;85.00;;;;;;5008398;28;20855;-76
2024/01/26 05:41:12;;;;;;;6.03;3.70;;;10.40;85.10;;;;;;5010054;28;20507;-77
2024/01/26 05:43:40;;;;;;;8.90;4.23;;;10.40;85.10;;;;;;5010826;28;20544;-77
2024/01/26 05:46:09;;;;;;;9.43;4.00;;;10.50;85.10;;;;;;5010200;28;20455;-77
2024/01/26 05:48:37;;;;;;;6.13;3.90;;;10.50;85.10;;;;;;5010154;28;21037;-77
2024/01/26 05:51:07;;;;;;;7.30;3.60;;;10.50;85.20;;;;;;5020790;28;20489;-77
2024/01/26 05:53:35;;;;;;;7.70;3.50;;;10.50;85.20;;;;;;5000950;28;20456;-77
2024/01/26 05:56:03;;;;;;;7.10;3.60;;;10.50;85.20;;;;;;5005121;28;20542;-76
2024/01/26 05:58:32;;;;;;;5.73;3.53;;;10.50;85.10;;;;;;5016074;28;20975;-76
2024/01/26 06:01:00;;;;;;;7.23;3.43;;;10.50;85.20;;;;;;5002764;28;20464;-76
2024/01/26 06:03:28;;;;;;;5.10;2.90;;;10.50;85.20;;;;;;5013167;28;20485;-77
2024/01/26 06:05:56;;;;;;;5.60;2.83;;;10.50;85.20;;;;;;5014177;28;20541;-76
2024/01/26 06:08:26;;;;;;;6.40;2.80;;;10.50;85.20;;;;;;5002985;28;20491;-77
2024/01/26 06:10:55;;;;;;;6.37;2.80;;;10.50;85.30;;;;;;5004124;28;20462;-77
2024/01/26 06:13:24;;;;;;;5.23;2.03;;;10.50;85.30;;;;;;5001187;28;20475;-77
2024/01/26 06:15:52;;;;;;;7.43;3.10;;;10.50;85.30;;;;;;5004792;28;20459;-77
2024/01/26 06:18:20;;;;;;;7.43;3.03;;;10.50;85.40;;;;;;5017663;28;20551;-77
2024/01/26 06:20:48;;;;;;;5.37;2.97;;;10.60;85.30;;;;;;5005449;28;20457;-77
2024/01/26 06:23:18;;;;;;;5.20;2.67;;;10.60;85.30;;;;;;5004284;28;20496;-76
2024/01/26 06:25:48;;;;;;;6.17;3.20;;;10.60;85.20;;;;;;5014792;28;20795;-77
2024/01/26 06:28:16;;;;;;;4.93;2.97;;;10.60;85.30;;;;;;5003586;28;20559;-77
2024/01/26 06:30:44;;;;;;;6.57;3.53;;;10.60;85.30;;;;;;5003465;28;20479;-77
2024/01/26 06:33:12;;;;;;;7.60;3.07;;;10.60;85.30;;;;;;4998176;28;20483;-77
2024/01/26 06:35:40;;;;;;;6.30;3.13;;;10.60;85.30;;;;;;5002390;28;20516;-76
2024/01/26 06:38:08;;;;;;;6.07;3.10;;;10.60;85.40;;;;;;5008281;28;20547;-77
2024/01/26 06:40:37;;;;;;;6.30;3.10;;;10.60;85.40;;;;;;5003405;28;20461;-77
2024/01/26 06:43:08;;;;;;;5.13;2.93;;;10.60;85.40;;;;;;5010742;28;20963;-76
2024/01/26 06:45:36;;;;;;;5.00;2.60;;;10.60;85.40;;;;;;5000943;28;20460;-77
2024/01/26 06:48:05;;;;;;;5.20;2.43;;;10.60;85.40;;;;;;5001609;28;20858;-77
2024/01/26 06:50:34;;;;;;;4.10;1.90;;;10.60;85.40;;;;;;5002374;28;20463;-76
2024/01/26 06:53:02;;;;;;;5.27;2.60;;;10.60;85.40;;;;;;4998259;28;20457;-77
2024/01/26 06:55:30;;;;;;;4.50;2.27;;;10.60;85.50;;;;;;5004428;28;20457;-77
2024/01/26 06:57:58;;;;;;;5.07;2.10;;;10.60;85.50;;;;;;5006083;28;20463;-78
2024/01/26 07:00:29;;;;;;;3.80;1.67;;;10.60;85.50;;;;;;5003506;28;20480;-77
2024/01/26 07:02:57;;;;;;;3.67;1.60;;;10.60;85.60;;;;;;5006787;28;20538;-77
2024/01/26 07:05:25;;;;;;;4.10;1.60;;;10.60;85.60;;;;;;5004308;28;20532;-77
2024/01/26 07:07:54;;;;;;;4.00;1.80;;;10.60;85.60;;;;;;5012793;28;20467;-77
2024/01/26 07:10:22;;;;;;;4.07;1.67;;;10.60;85.60;;;;;;5017980;28;20850;-77
2024/01/26 07:12:50;;;;;;;3.83;1.50;;;10.60;85.60;;;;;;5019254;28;20452;-78
2024/01/26 07:15:18;;;;;;;3.77;1.53;;;10.60;85.60;;;;;;5002454;28;20513;-77
2024/01/26 07:17:49;;;;;;;3.73;1.50;;;10.60;85.70;;;;;;5002069;28;20552;-77
2024/01/26 07:20:19;;;;;;;4.30;1.57;;;10.70;85.60;;;;;;5021241;28;20476;-77
2024/01/26 07:22:47;;;;;;;3.40;1.40;;;10.70;85.60;;;;;;5003070;28;20579;-77
2024/01/26 07:25:19;;;;;;;4.20;1.37;;;10.70;85.70;;;;;;5006257;28;20549;-77
2024/01/26 07:27:47;;;;;;;4.40;1.30;;;10.70;85.70;;;;;;5001883;28;20472;-77
2024/01/26 07:30:17;;;;;;;3.80;1.57;;;10.70;85.60;;;;;;5006149;28;20449;-77
2024/01/26 07:32:45;;;;;;;3.90;1.50;;;10.70;85.60;;;;;;4995840;28;20453;-78
2024/01/26 07:35:15;;;;;;;4.30;1.50;;;10.70;85.60;;;;;;5020756;28;20464;-78
2024/01/26 07:37:43;;;;;;;3.80;1.60;;;10.70;85.60;;;;;;5002542;28;20985;-77
2024/01/26 07:40:12;;;;;;;4.27;1.80;;;10.70;85.70;;;;;;5003154;28;20459;-77
2024/01/26 07:42:40;;;;;;;4.30;1.97;;;10.70;85.80;;;;;;5004104;28;20494;-77
2024/01/26 07:45:08;;;;;;;3.90;1.73;;;10.70;85.80;;;;;;4999373;28;20459;-77
2024/01/26 07:47:36;;;;;;;4.10;2.00;;;10.70;85.80;;;;;;5003487;28;20544;-77
2024/01/26 07:50:05;;;;;;;4.93;2.53;;;10.70;85.80;;;;;;5000709;28;20499;-77
2024/01/26 07:52:35;;;;;;;3.80;2.00;;;10.70;85.80;;;;;;5004150;28;20524;-77
2024/01/26 07:55:03;;;;;;;4.90;2.17;;;10.70;85.90;;;;;;5018650;28;20452;-77
2024/01/26 07:57:31;;;;;;;4.20;2.23;;;10.70;85.90;;;;;;5018948;28;20464;-77
2024/01/26 07:59:59;;;;;;;4.70;2.77;;;10.70;85.90;;;;;;4998995;28;20763;-77
2024/01/26 08:02:28;;;;;;;5.10;2.93;;;10.70;85.90;;;;;;5018888;28;20472;-77
2024/01/26 08:04:56;;;;;;;4.13;2.10;;;10.70;85.90;;;;;;5008036;28;20463;-77
2024/01/26 08:07:24;;;;;;;5.57;2.30;;;10.70;86.00;;;;;;5018415;28;20963;-78
2024/01/26 08:09:57;;;;;;;4.97;2.83;;;10.70;86.00;;;;;;5015789;28;20813;-77
2024/01/26 08:12:25;;;;;;;4.93;2.70;;;10.70;86.00;;;;;;5003963;28;21118;-77
2024/01/26 08:15:11;;;;;;;4.43;2.40;;;10.80;86.00;;;;;;5005770;28;20848;-78
2024/01/26 08:17:41;;;;;;;5.37;2.63;;;10.80;86.00;;;;;;5005954;28;20546;-77
2024/01/26 08:20:11;;;;;;;5.20;2.40;;;10.80;86.00;;;;;;5002072;28;20520;-78
2024/01/26 08:22:40;;;;;;;4.10;2.17;;;10.80;86.10;;;;;;5021763;28;20847;-78
2024/01/26 08:25:10;;;;;;;4.40;2.37;;;10.80;86.00;;;;;;5005548;28;20460;-77
2024/01/26 08:27:39;;;;;;;4.80;2.53;;;10.80;86.10;;;;;;5008099;28;20460;-77
2024/01/26 08:30:09;;;;;;;3.97;2.00;;;10.80;86.10;;;;;;5006700;28;20479;-78
2024/01/26 08:32:37;;;;;;;4.10;2.33;;;10.80;86.20;;;;;;5007091;28;20567;-77
2024/01/26 08:35:09;;;;;;;5.40;2.40;;;10.80;86.20;;;;;;5002333;28;20453;-77
2024/01/26 08:37:38;;;;;;;4.43;2.40;;;10.80;86.20;;;;;;5005864;28;20921;-77
2024/01/26 08:40:09;;;;;;;4.77;2.63;;;10.80;86.30;;;;;;5014607;28;20552;-78
2024/01/26 08:42:38;;;;;;;4.30;2.20;;;10.80;86.20;;;;;;5018286;28;20461;-77
2024/01/26 08:45:08;;;;;;;6.07;2.93;;;10.90;86.30;;;;;;5002397;28;20497;-78
2024/01/26 08:47:36;;;;;;;4.27;2.20;;;10.90;86.30;;;;;;5024040;28;20461;-77
2024/01/26 08:50:05;;;;;;;4.30;1.90;;;10.90;86.30;;;;;;5008649;28;20552;-77
2024/01/26 08:52:33;;;;;;;4.43;2.40;;;10.90;86.30;;;;;;5014106;28;20463;-78
2024/01/26 08:55:01;;;;;;;4.60;1.80;;;10.90;86.30;;;;;;5014029;28;20870;-77
2024/01/26 08:57:29;;;;;;;4.20;2.07;;;10.90;86.40;;;;;;5006297;28;20453;-78
2024/01/26 08:59:59;;;;;;;3.60;1.43;;;10.90;86.40;;;;;;5009584;28;20600;-78
2024/01/26 09:02:28;;;;;;;4.10;1.63;;;10.90;86.40;;;;;;5007868;28;20503;-78
2024/01/26 09:04:56;;;;;;;3.70;1.60;;;11.00;86.40;;;;;;5006214;28;20491;-77
2024/01/26 09:07:24;;;;;;;4.07;1.83;;;11.00;86.40;;;;;;5021433;28;20471;-77
2024/01/26 09:09:53;;;;;;;3.70;1.53;;;11.00;86.30;;;;;;5007044;28;20879;-77
2024/01/26 09:12:21;;;;;;;4.00;1.70;;;11.10;86.20;;;;;;5008803;28;20471;-77
2024/01/26 09:14:50;;;;;;;4.00;1.60;;;11.10;86.20;;;;;;5022448;28;20459;-77
2024/01/26 09:17:19;;;;;;;4.20;1.70;;;11.10;86.20;;;;;;5003953;28;20856;-77
2024/01/26 09:19:47;;;;;;;3.50;1.47;;;11.10;86.10;;;;;;5005783;28;20463;-77
2024/01/26 09:22:16;;;;;;;3.87;1.50;;;11.10;86.20;;;;;;5008107;28;20514;-78
2024/01/26 09:24:44;;;;;;;4.63;1.60;;;11.20;86.10;;;;;;5022143;28;20492;-77
2024/01/26 09:27:12;;;;;;;4.70;1.50;;;11.20;86.10;;;;;;5006258;28;20464;-77
2024/01/26 09:29:40;;;;;;;4.03;1.33;;;11.20;86.10;;;;;;5023254;28;20465;-77
2024/01/26 09:32:08;;;;;;;4.17;1.97;;;11.20;86.10;;;;;;5020923;28;20472;-77
2024/01/26 09:34:37;;;;;;;5.10;1.87;;;11.20;86.00;;;;;;5005535;28;20465;-77
2024/01/26 09:37:05;;;;;;;5.30;2.03;;;11.30;85.90;;;;;;5009020;28;20912;-77
2024/01/26 09:39:33;;;;;;;4.50;1.60;;;11.20;85.80;;;;;;5010179;28;20500;-78
2024/01/26 09:42:02;;;;;;;4.07;1.87;;;11.20;85.90;;;;;;5007363;28;20452;-77
2024/01/26 09:44:30;;;;;;;3.90;1.60;;;11.20;85.90;;;;;;5005976;28;20473;-78
2024/01/26 09:46:58;;;;;;;7.40;2.10;;;11.20;85.90;;;;;;5005793;28;20910;-77
2024/01/26 09:49:29;;;;;;;4.07;1.70;;;11.20;85.90;;;;;;5008718;28;20513;-77
2024/01/26 09:51:59;;;;;;;5.83;2.10;;;11.20;85.90;;;;;;5016644;28;20536;-77
2024/01/26 09:54:28;;;;;;;4.07;1.97;;;11.20;85.90;;;;;;5004921;28;20550;-77
2024/01/26 09:56:58;;;;;;;6.10;2.20;;;11.30;85.80;;;;;;5004670;28;20489;-77
2024/01/26 09:59:26;;;;;;;5.47;2.60;;;11.30;85.70;;;;;;5009864;28;20535;-78
2024/01/26 10:01:54;;;;;;;4.60;2.20;;;11.30;85.70;;;;;;5009535;28;20471;-78
2024/01/26 10:04:23;;;;;;;9.23;2.47;;;11.20;85.70;;;;;;5016454;28;20570;-78
2024/01/26 10:06:51;;;;;;;5.20;2.00;;;11.20;85.70;;;;;;5024991;28;20464;-77
2024/01/26 10:09:20;;;;;;;4.63;1.93;;;11.30;85.60;;;;;;5004703;28;20454;-77
2024/01/26 10:11:48;;;;;;;5.70;2.17;;;11.30;85.50;;;;;;5010000;28;20490;-77
2024/01/26 10:14:22;;;;;;;6.40;2.67;;;11.30;85.50;;;;;;5023541;28;20480;-77
2024/01/26 10:16:57;;;;;;;4.40;2.07;;;11.30;85.50;;;;;;5004000;28;20453;-77
2024/01/26 10:19:26;;;;;;;6.60;2.33;;;11.30;85.50;;;;;;5005030;28;20470;-78
2024/01/26 10:21:59;;;;;;;6.30;2.53;;;11.30;85.40;;;;;;5006028;28;20496;-77
2024/01/26 10:24:29;;;;;;;7.27;2.53;;;11.30;85.40;;;;;;5022924;28;20481;-77
2024/01/26 10:26:57;;;;;;;5.57;2.73;;;11.20;85.50;;;;;;5004008;28;20467;-77
2024/01/26 10:29:26;;;;;;;6.20;2.70;;;11.30;85.50;;;;;;5005231;28;20681;-77
2024/01/26 10:31:54;;;;;;;6.93;2.70;;;11.20;85.50;;;;;;5004674;28;21027;-77
2024/01/26 10:34:24;;;;;;;5.37;2.70;;;11.30;85.50;;;;;;5010729;28;20528;-77
2024/01/26 10:36:56;;;;;;;5.80;2.17;;;11.30;85.50;;;;;;5010945;28;20944;-77
2024/01/26 10:39:28;;;;;;;5.93;2.43;;;11.20;85.50;;;;;;5023846;28;22490;-77
2024/01/26 10:42:03;;;;;;;5.40;2.47;;;11.20;85.50;;;;;;5000698;28;20470;-77
2024/01/26 10:44:34;;;;;;;5.67;2.30;;;11.20;85.60;;;;;;5016015;28;20567;-77
2024/01/26 10:47:04;;;;;;;6.50;2.90;;;11.20;85.60;;;;;;5000771;28;20471;-77
2024/01/26 10:49:34;;;;;;;7.33;2.87;;;11.20;85.60;;;;;;4998318;28;20461;-77
2024/01/26 10:52:04;;;;;;;6.10;2.40;;;11.20;85.60;;;;;;5000492;28;20477;-77
2024/01/26 10:54:32;;;;;;;6.10;2.67;;;11.20;85.70;;;;;;5022540;28;20532;-78
2024/01/26 10:57:02;;;;;;;5.57;2.30;;;11.20;85.70;;;;;;5006303;28;20467;-77
2024/01/26 10:59:30;;;;;;;5.07;2.40;;;11.20;85.80;;;;;;5003464;28;20791;-77
2024/01/26 11:02:01;;;;;;;5.27;2.30;;;11.20;85.90;;;;;;5000646;28;21281;-80
2024/01/26 11:04:31;;;;;;;4.93;2.10;;;11.20;85.90;;;;;;5016621;28;20477;-80
2024/01/26 11:07:02;;;;;;;4.80;2.30;;;11.10;86.10;;;;;;5021771;28;20552;-80
2024/01/26 11:09:38;;;;;;;5.47;2.30;;;11.10;86.20;;;;;;5007261;28;20453;-80
2024/01/26 11:12:21;;;;;;;4.93;2.10;;;11.20;86.30;;;;;;5010556;28;20445;-80
2024/01/26 11:15:10;;;;;;;4.90;2.17;;;11.20;86.30;;;;;;5010157;28;20504;-80
2024/01/26 11:17:45;;;;;;;7.83;2.20;;;11.20;86.40;;;;;;5005146;28;20843;-80
2024/01/26 11:20:18;;;;;;;6.00;2.07;;;11.20;86.40;;;;;;5024410;28;20461;-80
2024/01/26 11:22:46;;;;;;;4.50;2.00;;;11.20;86.40;;;;;;5006929;28;20450;-80
2024/01/26 11:25:21;;;;;;;5.87;2.40;;;11.20;86.40;;;;;;5006165;28;20533;-80
2024/01/26 11:28:02;;;;;;;7.03;2.80;;;11.20;86.40;;;;;;5006703;28;20487;-80
2024/01/26 11:30:31;;;;;;;5.27;2.40;;;11.20;86.50;;;;;;5004931;28;20539;-79
2024/01/26 11:32:59;;;;;;;4.60;2.43;;;11.20;86.40;;;;;;5015972;28;20774;-80
2024/01/26 11:35:29;;;;;;;5.67;2.60;;;11.20;86.50;;;;;;5011523;28;20514;-80
2024/01/26 11:37:59;;;;;;;5.03;2.50;;;11.20;86.50;;;;;;5010839;28;20452;-80
2024/01/26 11:40:27;;;;;;;6.37;2.53;;;11.20;86.50;;;;;;5010588;28;22539;-80
2024/01/26 11:42:55;;;;;;;5.70;2.70;;;11.20;86.60;;;;;;5010204;28;20465;-80
2024/01/26 11:45:44;;;;;;;5.43;2.47;;;11.20;86.60;;;;;;5015388;28;20468;-80
2024/01/26 11:48:14;;;;;;;5.40;2.87;;;11.20;86.70;;;;;;5007845;28;20547;-81
2024/01/26 11:50:48;;;;;;;4.17;2.10;;;11.20;86.70;;;;;;5020074;28;20464;-81
2024/01/26 11:53:18;;;;;;;5.63;2.50;;;11.20;86.80;;;;;;5007545;28;20856;-80
2024/01/26 11:55:46;;;;;;;10.27;2.20;;;11.20;86.80;;;;;;5006018;28;21032;-80
2024/01/26 11:58:19;;;;;;;5.17;2.20;;;11.20;86.90;;;;;;5007636;28;20519;-80
2024/01/26 12:00:52;;;;;;;4.47;2.23;;;11.30;86.90;;;;;;5010914;28;20499;-80
2024/01/26 12:03:21;;;;;;;5.17;1.93;;;11.30;87.00;;;;;;5007789;28;20475;-81
2024/01/26 12:05:52;;;;;;;3.80;1.60;;;11.30;87.00;;;;;;5005684;28;20485;-81
2024/01/26 12:08:23;;;;;;;3.67;1.57;;;11.30;87.00;;;;;;5005853;28;20480;-80
2024/01/26 12:10:51;;;;;;;4.80;1.70;;;11.30;87.00;;;;;;5006924;28;20464;-80
2024/01/26 12:13:20;;;;;;;7.60;1.63;;;11.20;87.20;;;;;;5027995;28;20543;-81
2024/01/26 12:15:52;;;;;;;3.70;1.60;;;11.20;87.20;;;;;;5004765;28;20447;-80
2024/01/26 12:18:24;;;;;;;3.70;1.50;;;11.20;87.30;;;;;;5021841;28;20492;-81
2024/01/26 12:20:52;;;;;;;4.67;1.90;;;11.20;87.30;;;;;;5007742;28;20993;-80
2024/01/26 12:23:21;;;;;;;4.60;1.80;;;11.20;87.30;;;;;;5007500;28;20524;-80
2024/01/26 12:25:53;;;;;;;3.90;1.50;;;11.20;87.40;;;;;;5006597;28;20484;-80
2024/01/26 12:28:27;;;;;;;4.23;1.60;;;11.20;87.60;;;;;;5012755;28;20496;-80
2024/01/26 12:31:00;;;;;;;4.27;1.90;;;11.20;87.60;;;;;;5016817;28;20549;-80
2024/01/26 12:33:28;;;;;;;7.40;2.10;;;11.20;87.60;;;;;;5012307;28;20468;-81
2024/01/26 12:35:59;;;;;;;3.93;1.40;;;11.20;87.60;;;;;;5009990;28;20899;-80
2024/01/26 12:38:27;;;;;;;3.93;1.83;;;11.20;87.60;;;;;;5012805;28;20468;-81
2024/01/26 12:40:55;;;;;;;4.20;1.67;;;11.30;87.60;;;;;;5013246;28;20611;-80
2024/01/26 12:43:25;;;;;;;3.10;1.00;;;11.30;87.60;;;;;;5023169;28;20456;-81
2024/01/26 12:45:53;;;;;;;6.03;1.50;;;11.30;87.70;;;;;;5024537;28;20488;-80
2024/01/26 12:48:22;;;;;;;3.80;1.30;;;11.20;87.80;;;;;;5011468;28;20490;-80
2024/01/26 12:50:51;;;;;;;3.43;1.10;;;11.20;87.80;;;;;;5015297;28;20556;-81
2024/01/26 12:53:22;;;;;;;4.00;1.27;;;11.20;87.80;;;;;;5010503;28;20514;-80
2024/01/26 12:55:54;;;;;;;5.90;1.47;;;11.30;87.90;;;;;;5007682;28;20449;-80